Time;durP1;ratioP1;P1;durP2;ratioP2;P2;SDS_P1;SDS_P2;PMS_P1;PMS_P2;Temp;Humidity;BMP_temperature;BMP_pressure;BME280_temperature;BME280_humidity;BME280_pressure;Samples;Min_cycle;Max_cycle;Signal;HPM_P1;HPM_P2
2023/11/14 00:00:26;;;;;;;30.15;5.20;;;12.00;89.80;;;;;;4995238;28;20057;-32
2023/11/14 00:02:51;;;;;;;24.00;4.47;;;12.00;90.00;;;;;;4995286;28;20035;-30
2023/11/14 00:05:17;;;;;;;25.48;4.75;;;12.00;90.00;;;;;;4994953;28;20023;-33
2023/11/14 00:07:43;;;;;;;24.02;4.65;;;12.00;90.00;;;;;;4995187;28;20529;-32
2023/11/14 00:10:09;;;;;;;27.73;5.20;;;12.00;90.10;;;;;;4995004;28;20026;-36
2023/11/14 00:12:36;;;;;;;22.20;4.65;;;11.90;90.10;;;;;;4994888;28;20030;-31
2023/11/14 00:15:03;;;;;;;29.33;4.57;;;11.90;90.00;;;;;;4994944;28;20117;-35
2023/11/14 00:17:29;;;;;;;32.40;5.07;;;12.00;90.00;;;;;;4994757;28;20034;-30
2023/11/14 00:19:55;;;;;;;30.52;5.25;;;12.00;90.00;;;;;;4994645;28;20083;-31
2023/11/14 00:22:20;;;;;;;24.77;4.80;;;11.90;90.00;;;;;;4994996;28;20037;-29
2023/11/14 00:24:47;;;;;;;28.42;4.75;;;12.00;90.00;;;;;;4994888;28;20022;-32
2023/11/14 00:27:13;;;;;;;32.05;5.43;;;12.00;90.00;;;;;;4994709;28;20039;-32
2023/11/14 00:29:39;;;;;;;33.50;5.63;;;12.00;90.10;;;;;;4994405;28;20050;-35
2023/11/14 00:32:05;;;;;;;30.83;6.55;;;12.00;90.10;;;;;;4993278;28;20022;-37
2023/11/14 00:34:31;;;;;;;26.20;5.63;;;12.00;90.00;;;;;;4994644;28;20066;-29
2023/11/14 00:36:56;;;;;;;26.77;4.80;;;12.00;90.00;;;;;;4994562;28;20031;-31
2023/11/14 00:39:22;;;;;;;25.92;5.32;;;12.00;89.90;;;;;;4994386;28;20034;-32
2023/11/14 00:41:53;;;;;;;27.75;5.60;;;12.10;90.10;;;;;;4994336;28;20363;-29
2023/11/14 00:44:21;;;;;;;35.00;6.65;;;12.10;89.70;;;;;;4994374;28;20494;-29
2023/11/14 00:46:48;;;;;;;29.45;6.57;;;12.10;89.50;;;;;;4994211;28;20034;-31
2023/11/14 00:49:14;;;;;;;20.80;5.07;;;12.10;89.40;;;;;;4994284;28;20030;-33
2023/11/14 00:51:39;;;;;;;24.55;4.65;;;12.10;89.20;;;;;;4994205;28;20089;-32
2023/11/14 00:54:05;;;;;;;25.95;5.22;;;12.10;89.20;;;;;;4993857;28;20026;-33
2023/11/14 00:56:31;;;;;;;28.52;4.80;;;12.20;89.10;;;;;;4994501;28;20391;-34
2023/11/14 00:58:56;;;;;;;25.90;4.93;;;12.20;89.00;;;;;;4994053;28;20077;-33
2023/11/14 01:01:22;;;;;;;28.70;4.63;;;12.20;89.50;;;;;;4994399;28;20466;-30
2023/11/14 01:03:47;;;;;;;26.35;5.50;;;12.20;88.80;;;;;;4994291;28;20125;-31
2023/11/14 01:06:13;;;;;;;29.00;6.05;;;12.20;88.80;;;;;;4994299;28;20463;-31
2023/11/14 01:08:39;;;;;;;30.65;6.65;;;12.20;88.60;;;;;;4993934;28;20101;-36
2023/11/14 01:11:04;;;;;;;28.25;5.32;;;12.30;88.50;;;;;;4994016;28;20122;-29
2023/11/14 01:13:30;;;;;;;34.63;5.72;;;12.30;88.50;;;;;;4994218;28;20394;-30
2023/11/14 01:15:56;;;;;;;24.33;4.63;;;12.30;88.40;;;;;;4993943;28;20038;-30
2023/11/14 01:18:21;;;;;;;30.65;6.13;;;12.40;88.40;;;;;;4993647;28;20034;-30
2023/11/14 01:20:47;;;;;;;31.38;5.93;;;12.40;88.30;;;;;;4993658;28;20030;-31
2023/11/14 01:23:13;;;;;;;29.52;5.25;;;12.40;88.20;;;;;;4993745;28;20046;-30
2023/11/14 01:25:39;;;;;;;31.02;6.25;;;12.40;88.10;;;;;;4993765;28;20061;-32
2023/11/14 01:28:05;;;;;;;38.38;6.28;;;12.40;87.80;;;;;;4993574;28;20452;-29
2023/11/14 01:30:30;;;;;;;29.90;6.20;;;12.40;87.80;;;;;;4993757;28;20525;-31
2023/11/14 01:32:56;;;;;;;22.38;5.63;;;12.50;87.40;;;;;;4993813;28;20034;-36
2023/11/14 01:35:22;;;;;;;31.17;5.78;;;12.50;87.20;;;;;;4993555;28;20461;-29
2023/11/14 01:37:49;;;;;;;39.65;5.65;;;12.50;87.10;;;;;;4993719;28;20026;-37
2023/11/14 01:40:14;;;;;;;36.28;5.70;;;12.50;87.10;;;;;;4993371;28;20033;-35
2023/11/14 01:42:40;;;;;;;28.67;5.75;;;12.50;87.10;;;;;;4993526;28;20026;-32
2023/11/14 01:45:06;;;;;;;36.33;7.40;;;12.50;87.10;;;;;;4993250;28;20038;-32
2023/11/14 01:47:32;;;;;;;31.20;6.22;;;12.50;86.70;;;;;;4993402;28;20038;-34
2023/11/14 01:49:57;;;;;;;29.70;5.90;;;12.50;86.90;;;;;;4992942;28;20030;-32
2023/11/14 01:52:24;;;;;;;33.50;6.13;;;12.50;87.00;;;;;;4993410;28;20045;-30
2023/11/14 01:54:49;;;;;;;29.02;5.80;;;12.50;87.00;;;;;;4992922;28;20501;-32
2023/11/14 01:57:16;;;;;;;33.55;6.50;;;12.50;87.00;;;;;;4992913;28;20034;-29
2023/11/14 01:59:42;;;;;;;29.75;5.57;;;12.50;87.10;;;;;;4992869;28;20057;-31
2023/11/14 02:02:08;;;;;;;29.88;5.20;;;12.50;87.00;;;;;;4992475;28;20030;-33
2023/11/14 02:04:36;;;;;;;24.48;5.57;;;12.50;87.10;;;;;;4993096;28;20026;-33
2023/11/14 02:07:02;;;;;;;40.28;6.93;;;12.50;87.20;;;;;;4991862;28;20037;-35
2023/11/14 02:09:28;;;;;;;30.63;6.13;;;12.50;87.20;;;;;;4992709;28;20022;-32
2023/11/14 02:11:55;;;;;;;26.52;5.65;;;12.40;87.20;;;;;;4992496;28;20081;-37
2023/11/14 02:14:21;;;;;;;39.22;6.32;;;12.40;87.30;;;;;;4992921;28;20015;-36
2023/11/14 02:16:48;;;;;;;27.80;5.60;;;12.50;87.30;;;;;;4992594;28;20410;-34
2023/11/14 02:19:14;;;;;;;36.45;6.30;;;12.50;87.40;;;;;;4992534;28;20028;-36
2023/11/14 02:21:41;;;;;;;33.15;5.43;;;12.50;87.50;;;;;;4992596;28;20031;-36
2023/11/14 02:24:12;;;;;;;34.53;6.57;;;12.50;88.20;;;;;;4992649;28;20022;-37
2023/11/14 02:26:38;;;;;;;22.27;4.60;;;12.50;87.60;;;;;;4992490;28;20026;-37
2023/11/14 02:29:03;;;;;;;28.63;5.38;;;12.50;87.70;;;;;;4992264;28;20053;-37
2023/11/14 02:31:29;;;;;;;28.92;5.13;;;12.50;87.80;;;;;;4992305;28;20101;-34
2023/11/14 02:33:55;;;;;;;28.90;5.80;;;12.50;88.00;;;;;;4992524;28;20030;-37
2023/11/14 02:36:20;;;;;;;31.27;5.50;;;12.50;88.10;;;;;;4992438;28;20034;-38
2023/11/14 02:38:46;;;;;;;28.45;4.85;;;12.40;88.00;;;;;;4992414;28;20026;-32
2023/11/14 02:41:14;;;;;;;27.27;5.80;;;12.50;88.20;;;;;;4992209;28;20056;-32
2023/11/14 02:43:40;;;;;;;30.15;5.88;;;12.40;88.20;;;;;;4992631;28;20022;-32
2023/11/14 02:46:06;;;;;;;36.38;6.22;;;12.40;88.90;;;;;;4992373;28;20393;-37
2023/11/14 02:48:32;;;;;;;37.00;6.20;;;12.40;88.40;;;;;;4992527;28;20502;-32
2023/11/14 02:50:57;;;;;;;31.52;5.65;;;12.40;88.20;;;;;;4992399;28;20075;-32
2023/11/14 02:53:23;;;;;;;25.10;5.28;;;12.40;88.30;;;;;;4992479;28;20073;-30
2023/11/14 02:55:50;;;;;;;34.22;5.43;;;12.50;88.30;;;;;;4992671;28;20107;-34
2023/11/14 02:58:16;;;;;;;25.95;5.82;;;12.50;88.40;;;;;;4991051;28;20057;-35
2023/11/14 03:00:51;;;;;;;34.00;5.57;;;12.50;88.40;;;;;;4992302;28;20470;-32
2023/11/14 03:03:16;;;;;;;28.63;5.38;;;12.50;88.30;;;;;;4992276;28;20022;-29
2023/11/14 03:05:43;;;;;;;31.75;5.43;;;12.50;88.40;;;;;;4992460;28;20026;-31
2023/11/14 03:08:09;;;;;;;36.20;6.25;;;12.50;88.40;;;;;;4992197;28;20105;-30
2023/11/14 03:10:35;;;;;;;34.15;6.15;;;12.50;88.50;;;;;;4992296;28;20470;-37
2023/11/14 03:13:03;;;;;;;32.67;5.68;;;12.50;88.60;;;;;;4992293;28;20442;-33
2023/11/14 03:15:29;;;;;;;39.70;6.50;;;12.50;88.60;;;;;;4992523;28;20046;-33
2023/11/14 03:17:58;;;;;;;36.08;6.57;;;12.50;88.70;;;;;;4993973;28;20057;-33
2023/11/14 03:20:27;;;;;;;34.88;6.22;;;12.50;89.00;;;;;;4996120;28;20022;-29
2023/11/14 03:22:53;;;;;;;35.10;5.93;;;12.40;89.10;;;;;;4996295;28;20054;-32
2023/11/14 03:25:19;;;;;;;36.28;6.95;;;12.40;89.20;;;;;;4996115;28;20506;-29
2023/11/14 03:27:45;;;;;;;29.75;5.38;;;12.40;89.60;;;;;;4996050;28;20057;-31
2023/11/14 03:30:11;;;;;;;33.85;5.82;;;12.40;89.80;;;;;;4995724;28;20034;-30
2023/11/14 03:32:37;;;;;;;29.85;5.13;;;12.40;90.00;;;;;;4995942;28;20407;-31
2023/11/14 03:35:04;;;;;;;32.20;6.15;;;12.40;90.00;;;;;;4996056;28;20015;-31
2023/11/14 03:37:32;;;;;;;40.17;6.88;;;12.30;90.00;;;;;;4995906;28;20031;-30
2023/11/14 03:39:58;;;;;;;30.80;5.95;;;12.30;90.00;;;;;;4995666;28;20033;-33
2023/11/14 03:42:23;;;;;;;34.50;6.68;;;12.40;90.00;;;;;;4995805;28;20039;-29
2023/11/14 03:44:49;;;;;;;37.13;6.47;;;12.40;90.00;;;;;;4995651;28;20061;-31
2023/11/14 03:47:15;;;;;;;35.05;6.57;;;12.40;89.80;;;;;;4994224;28;20039;-36
2023/11/14 03:49:41;;;;;;;31.67;5.75;;;12.40;89.60;;;;;;4995564;28;20030;-35
2023/11/14 03:52:07;;;;;;;32.58;5.72;;;12.40;89.50;;;;;;4995633;28;20190;-35
2023/11/14 03:54:33;;;;;;;31.77;5.53;;;12.40;89.40;;;;;;4995821;28;20501;-34
2023/11/14 03:56:59;;;;;;;33.03;6.53;;;12.40;89.30;;;;;;4995481;28;20077;-32
2023/11/14 03:59:25;;;;;;;32.45;5.80;;;12.40;89.10;;;;;;4995491;28;20468;-34
2023/11/14 04:01:50;;;;;;;40.60;6.88;;;12.50;89.00;;;;;;4995157;28;20496;-33
2023/11/14 04:04:16;;;;;;;39.03;6.70;;;12.50;89.40;;;;;;4995239;28;20368;-35
2023/11/14 04:06:41;;;;;;;27.42;5.22;;;12.40;89.70;;;;;;4995167;28;20030;-38
2023/11/14 04:09:07;;;;;;;30.80;6.28;;;12.40;89.90;;;;;;4994992;28;20026;-29
2023/11/14 04:11:33;;;;;;;36.15;6.60;;;12.40;90.10;;;;;;4995039;28;20130;-34
2023/11/14 04:13:59;;;;;;;29.33;6.03;;;12.40;90.10;;;;;;4994947;28;20030;-29
2023/11/14 04:16:24;;;;;;;35.53;6.13;;;12.30;90.10;;;;;;4995088;28;20394;-32
2023/11/14 04:18:50;;;;;;;41.10;6.25;;;12.30;90.10;;;;;;4995525;28;20027;-32
2023/11/14 04:21:19;;;;;;;24.95;5.78;;;12.30;90.10;;;;;;4995005;28;20033;-32
2023/11/14 04:23:46;;;;;;;34.80;5.53;;;12.30;90.10;;;;;;4995428;28;20470;-34
2023/11/14 04:26:13;;;;;;;33.53;5.30;;;12.30;90.00;;;;;;4994817;28;20038;-34
2023/11/14 04:28:38;;;;;;;25.85;5.03;;;12.40;90.00;;;;;;4994144;28;20054;-34
2023/11/14 04:31:04;;;;;;;33.15;5.38;;;12.30;90.00;;;;;;4994710;28;20023;-34
2023/11/14 04:33:29;;;;;;;23.38;5.18;;;12.40;89.90;;;;;;4995004;28;20532;-33
2023/11/14 04:35:55;;;;;;;33.38;5.95;;;12.40;89.70;;;;;;4994822;28;20030;-33
2023/11/14 04:38:21;;;;;;;28.73;5.90;;;12.40;89.50;;;;;;4994754;28;20031;-29
2023/11/14 04:40:46;;;;;;;30.10;5.10;;;12.40;89.50;;;;;;4994453;28;20026;-33
2023/11/14 04:43:12;;;;;;;27.98;5.20;;;12.40;89.30;;;;;;4994575;28;20053;-33
2023/11/14 04:45:37;;;;;;;28.73;5.20;;;12.40;89.20;;;;;;4994612;28;20050;-29
2023/11/14 04:48:03;;;;;;;27.00;6.78;;;12.40;89.20;;;;;;4994404;28;20029;-31
2023/11/14 04:50:29;;;;;;;25.38;5.55;;;12.40;89.10;;;;;;4994576;28;20026;-31
2023/11/14 04:52:55;;;;;;;29.48;5.65;;;12.30;89.10;;;;;;4994631;28;20015;-30
2023/11/14 04:55:20;;;;;;;36.20;6.00;;;12.40;89.10;;;;;;4994353;28;20501;-36
2023/11/14 04:57:46;;;;;;;26.02;4.97;;;12.40;88.70;;;;;;4994464;28;20027;-32
2023/11/14 05:00:12;;;;;;;27.23;5.13;;;12.40;88.90;;;;;;4993000;28;20500;-32
2023/11/14 05:02:38;;;;;;;32.03;5.93;;;12.40;88.90;;;;;;4994483;28;20486;-30
2023/11/14 05:05:04;;;;;;;26.75;5.15;;;12.40;88.90;;;;;;4992947;28;20029;-34
2023/11/14 05:07:30;;;;;;;34.50;6.05;;;12.40;88.70;;;;;;4994240;28;20030;-32
2023/11/14 05:09:56;;;;;;;33.72;5.72;;;12.50;88.80;;;;;;4992816;28;20026;-34
2023/11/14 05:12:21;;;;;;;32.88;5.65;;;12.50;88.70;;;;;;4994191;28;20394;-34
2023/11/14 05:14:47;;;;;;;26.38;6.03;;;12.50;88.60;;;;;;4994007;28;20022;-35
2023/11/14 05:17:13;;;;;;;31.60;5.60;;;12.50;88.50;;;;;;4993330;28;20102;-31
2023/11/14 05:19:42;;;;;;;30.50;6.35;;;12.50;88.30;;;;;;4993444;28;20054;-33
2023/11/14 05:22:07;;;;;;;32.05;6.53;;;12.50;88.30;;;;;;4993353;28;20045;-32
2023/11/14 05:24:33;;;;;;;34.97;5.97;;;12.60;88.40;;;;;;4993816;28;20034;-34
2023/11/14 05:26:58;;;;;;;35.97;5.97;;;12.50;88.20;;;;;;4993535;28;20423;-32
2023/11/14 05:29:24;;;;;;;33.28;5.32;;;12.50;88.30;;;;;;4993403;28;20046;-29
2023/11/14 05:31:50;;;;;;;40.15;6.30;;;12.60;88.40;;;;;;4993376;28;20034;-33
2023/11/14 05:34:15;;;;;;;30.60;6.07;;;12.50;88.30;;;;;;4993630;28;20514;-32
2023/11/14 05:36:41;;;;;;;39.47;6.13;;;12.50;88.30;;;;;;4993516;28;20030;-35
2023/11/14 05:39:07;;;;;;;30.42;6.22;;;12.60;88.20;;;;;;4993447;28;20034;-35
2023/11/14 05:41:35;;;;;;;25.77;5.28;;;12.60;88.10;;;;;;4993363;28;20105;-35
2023/11/14 05:44:00;;;;;;;29.75;5.53;;;12.60;88.10;;;;;;4992008;28;20063;-32
2023/11/14 05:46:26;;;;;;;31.52;5.13;;;12.60;88.20;;;;;;4992981;28;20081;-34
2023/11/14 05:48:51;;;;;;;21.20;4.10;;;12.60;88.20;;;;;;4993502;28;20022;-39
2023/11/14 05:51:17;;;;;;;27.80;4.80;;;12.60;88.20;;;;;;4993225;28;20023;-33
2023/11/14 05:53:45;;;;;;;23.23;4.97;;;12.60;88.20;;;;;;4993225;28;20077;-29
2023/11/14 05:56:11;;;;;;;29.65;5.70;;;12.60;88.90;;;;;;4993053;28;20033;-33
2023/11/14 05:58:36;;;;;;;36.28;6.03;;;12.60;88.20;;;;;;4993219;28;20294;-36
2023/11/14 06:01:02;;;;;;;28.20;5.57;;;12.70;88.30;;;;;;4992947;28;20031;-32
2023/11/14 06:03:28;;;;;;;32.92;6.63;;;12.60;88.20;;;;;;4993190;28;20092;-30
2023/11/14 06:05:54;;;;;;;34.60;5.60;;;12.70;88.30;;;;;;4992872;28;20081;-32
2023/11/14 06:08:19;;;;;;;34.00;5.88;;;12.70;88.30;;;;;;4992927;28;20026;-36
2023/11/14 06:10:45;;;;;;;34.00;5.55;;;12.70;88.30;;;;;;4992908;28;20522;-35
2023/11/14 06:13:11;;;;;;;29.38;6.30;;;12.70;88.40;;;;;;4992715;28;20022;-34
2023/11/14 06:15:36;;;;;;;39.35;7.03;;;12.70;88.40;;;;;;4992965;28;20034;-31
2023/11/14 06:18:02;;;;;;;37.03;7.13;;;12.70;88.30;;;;;;4991367;28;20394;-35
2023/11/14 06:20:29;;;;;;;27.80;5.78;;;12.70;88.20;;;;;;4992551;28;20097;-36
2023/11/14 06:22:55;;;;;;;35.55;5.75;;;12.70;88.20;;;;;;4992673;28;20026;-35
2023/11/14 06:25:21;;;;;;;30.52;5.55;;;12.70;88.20;;;;;;4992600;28;20028;-36
2023/11/14 06:27:46;;;;;;;34.72;6.60;;;12.70;88.10;;;;;;4991113;28;20034;-32
2023/11/14 06:30:12;;;;;;;31.35;5.68;;;12.70;88.20;;;;;;4990845;28;20030;-37
2023/11/14 06:32:38;;;;;;;26.48;5.70;;;12.70;88.20;;;;;;4992658;28;20022;-33
2023/11/14 06:35:04;;;;;;;31.23;5.53;;;12.70;88.10;;;;;;4992587;28;20026;-32
2023/11/14 06:37:30;;;;;;;33.83;7.03;;;12.70;88.10;;;;;;4992791;28;20033;-33
2023/11/14 06:39:55;;;;;;;29.55;6.10;;;12.70;88.10;;;;;;4992304;28;20109;-36
2023/11/14 06:42:23;;;;;;;30.40;5.72;;;12.70;88.00;;;;;;4992376;28;20109;-34
2023/11/14 06:44:49;;;;;;;33.25;5.80;;;12.70;88.00;;;;;;4992417;28;20058;-33
2023/11/14 06:47:15;;;;;;;38.28;7.18;;;12.70;88.00;;;;;;4992147;28;20058;-33
2023/11/14 06:49:44;;;;;;;40.47;6.65;;;12.70;88.00;;;;;;4992239;28;20029;-30
2023/11/14 06:52:13;;;;;;;32.72;6.47;;;12.60;88.00;;;;;;4993705;28;20026;-36
2023/11/14 06:54:39;;;;;;;30.58;5.90;;;12.60;88.10;;;;;;4999164;28;20555;-33
2023/11/14 06:57:09;;;;;;;32.85;6.00;;;12.60;88.20;;;;;;4998657;28;20113;-31
2023/11/14 06:59:35;;;;;;;28.90;4.97;;;12.60;88.20;;;;;;4998746;28;20030;-31
2023/11/14 07:02:05;;;;;;;24.73;5.10;;;12.60;88.20;;;;;;4998622;28;20113;-35
2023/11/14 07:04:40;;;;;;;33.63;6.85;;;12.60;88.20;;;;;;4999017;28;20061;-29
2023/11/14 07:07:06;;;;;;;30.13;6.10;;;12.60;88.20;;;;;;4998630;28;20080;-32
2023/11/14 07:09:32;;;;;;;25.00;5.28;;;12.60;88.10;;;;;;4998871;28;20113;-35
2023/11/14 07:11:57;;;;;;;29.02;5.70;;;12.60;88.20;;;;;;4998398;28;20034;-31
2023/11/14 07:14:25;;;;;;;23.45;4.60;;;12.60;88.40;;;;;;4997242;28;20023;-31
2023/11/14 07:16:52;;;;;;;28.73;5.28;;;12.60;88.50;;;;;;4998468;28;20034;-33
2023/11/14 07:19:17;;;;;;;33.50;5.95;;;12.60;88.60;;;;;;4998777;28;20085;-34
2023/11/14 07:21:46;;;;;;;39.17;7.25;;;12.60;88.70;;;;;;4998778;28;20026;-32
2023/11/14 07:24:12;;;;;;;33.20;5.57;;;12.60;88.80;;;;;;4998661;28;20026;-34
2023/11/14 07:26:38;;;;;;;27.88;5.47;;;12.50;88.80;;;;;;4998758;28;20030;-31
2023/11/14 07:29:04;;;;;;;30.88;5.47;;;12.50;88.80;;;;;;4998443;28;20742;-31
2023/11/14 07:31:30;;;;;;;22.63;4.93;;;12.50;88.80;;;;;;4997304;28;20026;-32
2023/11/14 07:33:56;;;;;;;30.27;5.80;;;12.60;88.90;;;;;;4998459;28;20029;-30
2023/11/14 07:36:22;;;;;;;33.90;6.32;;;12.60;88.80;;;;;;4998467;28;20426;-31
2023/11/14 07:38:49;;;;;;;35.13;6.40;;;12.60;88.80;;;;;;4998637;28;20466;-34
2023/11/14 07:41:14;;;;;;;34.63;6.05;;;12.60;88.70;;;;;;4998337;28;20029;-30
2023/11/14 07:43:41;;;;;;;28.27;5.38;;;12.60;88.80;;;;;;4998822;28;20485;-30
2023/11/14 07:46:08;;;;;;;24.88;4.93;;;12.60;88.80;;;;;;4998286;28;20026;-32
2023/11/14 07:48:34;;;;;;;31.58;5.93;;;12.60;88.80;;;;;;4998659;28;20125;-30
2023/11/14 07:51:00;;;;;;;29.67;5.43;;;12.60;88.70;;;;;;4998285;28;20058;-33
2023/11/14 07:53:26;;;;;;;30.05;6.25;;;12.70;88.70;;;;;;4998481;28;20022;-31
2023/11/14 07:55:52;;;;;;;28.75;5.93;;;12.70;88.70;;;;;;4998323;28;20034;-32
2023/11/14 07:58:20;;;;;;;22.17;4.35;;;12.70;88.70;;;;;;4998632;28;20035;-32
2023/11/14 08:00:46;;;;;;;29.27;5.38;;;12.60;88.70;;;;;;4998444;28;20022;-33
2023/11/14 08:03:12;;;;;;;32.67;6.03;;;12.70;88.80;;;;;;4997767;28;20050;-30
2023/11/14 08:05:40;;;;;;;33.55;6.43;;;12.60;88.90;;;;;;4994347;28;20065;-32
2023/11/14 08:08:10;;;;;;;32.65;6.13;;;12.60;89.00;;;;;;4995205;28;20122;-33
2023/11/14 08:10:37;;;;;;;27.15;5.05;;;12.60;89.10;;;;;;4995231;28;20487;-30
2023/11/14 08:13:02;;;;;;;21.70;4.60;;;12.60;89.20;;;;;;4995131;28;20030;-35
2023/11/14 08:15:28;;;;;;;24.35;5.63;;;12.70;89.40;;;;;;4995258;28;20027;-33
2023/11/14 08:17:54;;;;;;;28.50;6.10;;;12.70;89.40;;;;;;4993945;28;20021;-30
2023/11/14 08:20:20;;;;;;;31.67;5.68;;;12.70;89.40;;;;;;4995146;28;20022;-33
2023/11/14 08:22:45;;;;;;;25.63;5.10;;;12.70;89.30;;;;;;4995429;28;20498;-35
2023/11/14 08:25:11;;;;;;;25.73;5.15;;;12.80;89.20;;;;;;4994848;28;20026;-32
2023/11/14 08:27:38;;;;;;;20.10;4.68;;;12.70;89.80;;;;;;4995232;28;20026;-33
2023/11/14 08:30:08;;;;;;;23.63;5.25;;;12.70;89.30;;;;;;4994841;28;20038;-31
2023/11/14 08:32:33;;;;;;;26.08;4.82;;;12.80;89.40;;;;;;4994915;28;20026;-32
2023/11/14 08:35:00;;;;;;;23.23;4.50;;;12.80;89.40;;;;;;4994960;28;20562;-30
2023/11/14 08:37:26;;;;;;;24.20;5.30;;;12.70;89.40;;;;;;4994988;28;20037;-36
2023/11/14 08:39:52;;;;;;;21.83;4.90;;;12.70;89.40;;;;;;4994475;28;20550;-33
2023/11/14 08:42:17;;;;;;;22.63;4.70;;;12.80;89.50;;;;;;4995122;28;20382;-32
2023/11/14 08:44:43;;;;;;;24.02;5.28;;;12.70;89.40;;;;;;4994776;28;20034;-32
2023/11/14 08:47:08;;;;;;;19.75;4.90;;;12.70;89.40;;;;;;4993456;28;20050;-31
2023/11/14 08:49:34;;;;;;;23.38;4.53;;;12.70;89.40;;;;;;4993709;28;20526;-37
2023/11/14 08:52:00;;;;;;;23.13;4.55;;;12.80;89.40;;;;;;4994709;28;20030;-33
2023/11/14 08:54:26;;;;;;;22.90;4.78;;;12.80;89.50;;;;;;4994513;28;20063;-31
2023/11/14 08:56:51;;;;;;;17.65;3.97;;;12.80;89.40;;;;;;4994714;28;20034;-30
2023/11/14 08:59:17;;;;;;;22.95;4.43;;;12.80;89.40;;;;;;4994408;28;20390;-33
2023/11/14 09:01:44;;;;;;;16.67;3.75;;;12.80;89.40;;;;;;4994415;28;20038;-33
2023/11/14 09:04:10;;;;;;;24.15;4.55;;;12.80;89.40;;;;;;4994482;28;20030;-33
2023/11/14 09:06:38;;;;;;;19.73;4.40;;;12.80;89.40;;;;;;4994389;28;20034;-35
2023/11/14 09:09:03;;;;;;;29.35;4.90;;;12.80;89.40;;;;;;4994156;28;20434;-33
2023/11/14 09:11:29;;;;;;;19.38;3.67;;;12.80;89.40;;;;;;4994091;28;20023;-30
2023/11/14 09:13:59;;;;;;;26.42;5.30;;;12.80;89.50;;;;;;4994026;28;20034;-33
2023/11/14 09:16:25;;;;;;;26.08;5.15;;;12.80;89.50;;;;;;4993939;28;20030;-35
2023/11/14 09:18:51;;;;;;;25.02;4.80;;;12.80;89.60;;;;;;4994176;28;20034;-31
2023/11/14 09:21:17;;;;;;;17.15;4.70;;;12.80;89.60;;;;;;4994033;28;20042;-32
2023/11/14 09:23:43;;;;;;;17.65;4.47;;;12.80;89.60;;;;;;4993012;28;20398;-31
2023/11/14 09:26:10;;;;;;;21.48;4.53;;;12.80;89.60;;;;;;4993800;28;20095;-34
2023/11/14 09:28:37;;;;;;;17.73;4.32;;;12.80;89.80;;;;;;4993896;28;20057;-30
2023/11/14 09:31:03;;;;;;;25.52;4.70;;;12.80;89.80;;;;;;4993781;28;20173;-36
2023/11/14 09:33:30;;;;;;;21.63;4.07;;;12.80;89.80;;;;;;4993921;28;20058;-30
2023/11/14 09:35:55;;;;;;;22.38;4.78;;;12.90;89.90;;;;;;4993936;28;20101;-30
2023/11/14 09:38:24;;;;;;;20.42;3.95;;;12.90;89.90;;;;;;4992535;28;20034;-32
2023/11/14 09:40:51;;;;;;;26.33;4.65;;;13.00;89.90;;;;;;4993632;28;20034;-35
2023/11/14 09:43:26;;;;;;;20.48;4.50;;;13.00;90.20;;;;;;4993837;28;20031;-30
2023/11/14 09:45:52;;;;;;;25.08;4.43;;;13.00;90.10;;;;;;4993673;28;20053;-30
2023/11/14 09:48:18;;;;;;;25.58;4.65;;;13.10;89.80;;;;;;4993516;28;20026;-33
2023/11/14 09:50:45;;;;;;;24.33;4.93;;;13.10;89.70;;;;;;4993513;28;20022;-31
2023/11/14 09:53:12;;;;;;;26.50;5.75;;;13.10;89.70;;;;;;4993415;28;20027;-32
2023/11/14 09:55:39;;;;;;;21.38;4.82;;;13.10;89.50;;;;;;4993513;28;20057;-31
2023/11/14 09:58:08;;;;;;;25.48;5.22;;;13.20;89.60;;;;;;4993645;28;20032;-33
2023/11/14 10:00:35;;;;;;;24.30;5.30;;;13.20;89.50;;;;;;4993413;28;20023;-31
2023/11/14 10:03:03;;;;;;;32.65;5.68;;;13.20;89.40;;;;;;4993333;28;20310;-37
2023/11/14 10:05:30;;;;;;;28.65;4.88;;;13.30;89.30;;;;;;4993208;28;20026;-36
2023/11/14 10:07:56;;;;;;;23.40;4.65;;;13.30;89.20;;;;;;4993202;28;20109;-31
2023/11/14 10:10:22;;;;;;;24.55;5.18;;;13.30;89.30;;;;;;4993228;28;20114;-31
2023/11/14 10:12:50;;;;;;;24.05;4.80;;;13.30;89.30;;;;;;4993188;28;20445;-32
2023/11/14 10:15:31;;;;;;;22.88;5.07;;;13.30;89.40;;;;;;4991728;28;20030;-33
2023/11/14 10:17:58;;;;;;;25.90;5.05;;;13.30;89.50;;;;;;4992989;28;20512;-31
2023/11/14 10:20:36;;;;;;;27.48;5.43;;;13.30;89.40;;;;;;4992953;28;20466;-34
2023/11/14 10:23:03;;;;;;;26.00;5.30;;;13.30;89.40;;;;;;4993189;28;20031;-30
2023/11/14 10:25:31;;;;;;;36.72;6.00;;;13.30;89.20;;;;;;4993008;28;20041;-30
2023/11/14 10:28:04;;;;;;;30.85;6.32;;;13.40;89.00;;;;;;4991950;28;20494;-32
2023/11/14 10:30:49;;;;;;;26.37;5.00;;;13.40;88.70;;;;;;4992948;28;20027;-36
2023/11/14 10:33:15;;;;;;;25.85;4.85;;;13.50;88.80;;;;;;4993090;28;20807;-30
2023/11/14 10:35:41;;;;;;;35.22;5.78;;;13.50;88.80;;;;;;4992940;28;20142;-33
2023/11/14 10:38:25;;;;;;;24.85;5.35;;;13.60;88.60;;;;;;4991047;28;20022;-29
2023/11/14 10:40:55;;;;;;;31.58;5.60;;;13.70;87.70;;;;;;4992170;28;20031;-31
2023/11/14 10:43:27;;;;;;;33.95;6.10;;;13.80;86.90;;;;;;4992502;28;20045;-31
2023/11/14 10:45:58;;;;;;;27.10;5.23;;;13.90;86.90;;;;;;4992095;28;20532;-31
2023/11/14 10:48:24;;;;;;;30.55;5.70;;;13.90;86.40;;;;;;4992224;28;20034;-29
2023/11/14 10:50:51;;;;;;;29.63;5.47;;;13.90;86.30;;;;;;4992169;28;20386;-31
2023/11/14 10:53:17;;;;;;;31.02;5.43;;;13.90;86.10;;;;;;4991329;28;20097;-33
2023/11/14 10:55:47;;;;;;;23.60;4.32;;;13.90;85.50;;;;;;4992273;28;20023;-28
2023/11/14 10:58:13;;;;;;;30.27;5.13;;;13.90;85.80;;;;;;4992218;28;20022;-33
2023/11/14 11:00:40;;;;;;;31.35;6.60;;;13.80;85.90;;;;;;4991673;28;20053;-30
2023/11/14 11:03:07;;;;;;;24.70;4.75;;;13.90;85.70;;;;;;4991926;28;20193;-28
2023/11/14 11:05:33;;;;;;;23.75;5.00;;;13.80;85.60;;;;;;4992110;28;20081;-31
2023/11/14 11:08:05;;;;;;;29.15;5.55;;;13.90;85.80;;;;;;4990637;28;20038;-30
2023/11/14 11:10:35;;;;;;;21.55;4.45;;;13.90;85.80;;;;;;4992074;28;20037;-30
2023/11/14 11:13:14;;;;;;;27.27;5.70;;;13.90;85.70;;;;;;4991968;28;20053;-28
2023/11/14 11:15:44;;;;;;;26.63;5.15;;;13.90;85.50;;;;;;4992273;28;20459;-33
2023/11/14 11:18:10;;;;;;;22.33;5.18;;;13.90;85.40;;;;;;4991856;28;20039;-29
2023/11/14 11:20:36;;;;;;;23.25;4.55;;;13.80;85.20;;;;;;4992264;28;20533;-37
2023/11/14 11:23:03;;;;;;;24.58;4.60;;;13.80;85.50;;;;;;4991963;28;20022;-31
2023/11/14 11:25:31;;;;;;;19.98;4.63;;;13.80;85.60;;;;;;4992010;28;20065;-32
2023/11/14 11:27:57;;;;;;;24.63;5.43;;;13.80;85.60;;;;;;4991783;28;20033;-31
2023/11/14 11:30:24;;;;;;;27.08;5.35;;;13.80;85.50;;;;;;4991798;28;20034;-31
2023/11/14 11:32:58;;;;;;;21.38;4.82;;;13.90;85.50;;;;;;4991900;28;20076;-29
2023/11/14 11:35:25;;;;;;;19.17;5.13;;;13.90;85.60;;;;;;4991845;28;20097;-36
2023/11/14 11:38:11;;;;;;;19.13;4.43;;;13.90;85.50;;;;;;4991970;28;20045;-30
2023/11/14 11:41:07;;;;;;;26.50;5.10;;;13.90;85.60;;;;;;4995525;28;20031;-33
2023/11/14 11:43:36;;;;;;;19.80;5.13;;;13.90;85.30;;;;;;4993098;28;20572;-34
2023/11/14 11:46:02;;;;;;;24.25;5.00;;;13.90;85.30;;;;;;4995260;28;20030;-31
2023/11/14 11:48:32;;;;;;;26.48;5.65;;;13.90;85.10;;;;;;4995294;28;20030;-32
2023/11/14 11:51:20;;;;;;;27.27;5.82;;;13.90;85.00;;;;;;4994075;28;20033;-29
2023/11/14 11:53:46;;;;;;;21.17;5.03;;;14.00;85.00;;;;;;4995473;28;20050;-32
2023/11/14 11:56:32;;;;;;;20.38;4.05;;;14.00;85.00;;;;;;4995266;28;20057;-35
2023/11/14 11:58:58;;;;;;;20.35;4.13;;;14.00;85.10;;;;;;4993705;28;20046;-36
2023/11/14 12:01:23;;;;;;;24.45;4.38;;;14.00;85.20;;;;;;4995124;28;20513;-34
2023/11/14 12:03:49;;;;;;;17.63;4.38;;;14.10;85.20;;;;;;4995364;28;20065;-34
2023/11/14 12:06:15;;;;;;;17.50;4.22;;;14.10;85.30;;;;;;4993762;28;20483;-32
2023/11/14 12:08:41;;;;;;;17.92;4.60;;;14.10;85.30;;;;;;4995115;28;20030;-31
2023/11/14 12:11:14;;;;;;;21.30;4.40;;;14.10;85.10;;;;;;4993611;28;20057;-35
2023/11/14 12:13:41;;;;;;;23.35;5.35;;;14.00;85.20;;;;;;4995211;28;20386;-34
2023/11/14 12:16:07;;;;;;;24.63;5.68;;;14.00;85.20;;;;;;4994998;28;20030;-34
2023/11/14 12:18:33;;;;;;;23.00;4.57;;;14.00;85.40;;;;;;4994844;28;20030;-34
2023/11/14 12:20:59;;;;;;;18.08;3.97;;;13.90;85.50;;;;;;4994992;28;20373;-32
2023/11/14 12:23:25;;;;;;;17.65;4.25;;;13.90;85.70;;;;;;4995016;28;20037;-32
2023/11/14 12:25:51;;;;;;;16.48;4.03;;;13.80;85.80;;;;;;4994586;28;20034;-34
2023/11/14 12:28:16;;;;;;;14.45;3.75;;;13.90;86.00;;;;;;4994579;28;20050;-30
2023/11/14 12:31:01;;;;;;;13.70;3.72;;;13.80;86.00;;;;;;4994607;28;20423;-35
2023/11/14 12:33:27;;;;;;;11.70;3.30;;;13.80;86.20;;;;;;4994682;28;20057;-30